createdAt,value
2022-10-05T00:02:34.354Z,4.70
2022-10-05T00:05:36.737Z,4.07
2022-10-05T00:08:39.413Z,4.78
2022-10-05T00:11:41.869Z,4.88
2022-10-05T00:14:45.915Z,4.15
2022-10-05T00:17:48.486Z,4.07
2022-10-05T00:20:50.948Z,4.40
2022-10-05T00:23:56.314Z,3.65
2022-10-05T00:27:21.125Z,3.70
2022-10-05T00:30:25.464Z,4.13
2022-10-05T00:33:27.951Z,3.88
2022-10-05T00:36:30.304Z,3.30
2022-10-05T00:39:33.574Z,3.45
2022-10-05T00:43:25.850Z,4.07
2022-10-05T00:46:40.166Z,3.60
2022-10-05T00:50:00.732Z,3.60
2022-10-05T00:53:24.899Z,3.40
2022-10-05T00:56:46.643Z,3.55
2022-10-05T00:59:52.081Z,3.47
2022-10-05T01:03:15.333Z,3.25
2022-10-05T01:06:39.288Z,3.40
2022-10-05T01:09:59.054Z,3.30
2022-10-05T01:13:26.450Z,3.47
2022-10-05T01:16:34.476Z,3.50
2022-10-05T01:19:42.859Z,3.47
2022-10-05T01:23:22.543Z,3.20
2022-10-05T01:26:56.972Z,3.73
2022-10-05T01:30:16.244Z,3.53
2022-10-05T01:33:52.837Z,3.05
2022-10-05T01:36:58.075Z,3.55
2022-10-05T01:40:08.494Z,3.30
2022-10-05T01:43:33.005Z,3.57
2022-10-05T01:46:52.605Z,4.88
2022-10-05T01:50:00.773Z,4.10
2022-10-05T01:53:30.822Z,4.35
2022-10-05T01:56:43.576Z,4.35
2022-10-05T02:00:07.826Z,4.50
2022-10-05T02:03:24.828Z,4.00
2022-10-05T02:06:31.707Z,4.65
2022-10-05T02:09:38.008Z,3.88
2022-10-05T02:12:41.127Z,4.53
2022-10-05T02:15:57.023Z,4.60
2022-10-05T02:19:00.698Z,4.40
2022-10-05T02:22:06.772Z,4.88
2022-10-05T02:25:18.809Z,4.75
2022-10-05T02:28:33.886Z,5.70
2022-10-05T02:31:58.630Z,5.73
2022-10-05T02:35:09.625Z,5.32
2022-10-05T02:38:17.349Z,5.55
2022-10-05T02:41:32.746Z,5.20
2022-10-05T02:44:53.739Z,5.20
2022-10-05T02:48:19.274Z,5.17
2022-10-05T02:51:32.322Z,5.65
2022-10-05T02:54:47.417Z,7.18
2022-10-05T02:58:02.296Z,7.10
2022-10-05T03:01:07.615Z,7.65
2022-10-05T03:04:21.683Z,7.50
2022-10-05T03:07:29.761Z,7.38
2022-10-05T03:10:45.663Z,7.03
2022-10-05T03:13:50.889Z,8.18
2022-10-05T03:17:15.153Z,8.00
2022-10-05T03:20:24.302Z,7.80
2022-10-05T03:23:54.487Z,7.70
2022-10-05T03:27:09.294Z,6.75
2022-10-05T03:30:23.459Z,6.55
2022-10-05T03:33:40.777Z,6.80
2022-10-05T03:36:52.486Z,8.00
2022-10-05T03:40:01.000Z,8.90
2022-10-05T03:43:33.627Z,9.35
2022-10-05T03:47:04.689Z,8.88
2022-10-05T03:50:46.433Z,8.65
2022-10-05T03:53:53.317Z,8.70
2022-10-05T03:56:58.174Z,8.00
2022-10-05T04:00:05.661Z,7.63
2022-10-05T04:03:27.485Z,7.35
2022-10-05T04:06:44.669Z,5.60
2022-10-05T04:09:48.951Z,6.43
2022-10-05T04:12:58.701Z,6.10
2022-10-05T04:16:06.639Z,6.20
2022-10-05T04:19:21.342Z,5.80
2022-10-05T04:22:29.905Z,6.10
2022-10-05T04:25:46.541Z,5.87
2022-10-05T04:28:52.665Z,6.25
2022-10-05T04:32:19.913Z,5.75
2022-10-05T04:35:40.787Z,6.35
2022-10-05T04:39:00.387Z,5.55
2022-10-05T04:42:11.530Z,6.07
2022-10-05T04:45:37.848Z,6.13
2022-10-05T04:48:49.945Z,5.80
2022-10-05T04:52:09.801Z,6.03
2022-10-05T04:55:35.780Z,5.80
2022-10-05T04:59:17.753Z,6.20
2022-10-05T05:02:32.422Z,5.78
2022-10-05T05:05:53.031Z,6.13
2022-10-05T05:09:29.037Z,5.90
2022-10-05T05:12:37.600Z,6.07
2022-10-05T05:15:58.747Z,7.53
2022-10-05T05:19:35.669Z,7.05
2022-10-05T05:22:45.811Z,6.38
2022-10-05T05:25:54.435Z,6.65
2022-10-05T05:29:20.980Z,7.55
2022-10-05T05:32:49.572Z,11.40
2022-10-05T05:36:23.260Z,11.85
2022-10-05T05:39:51.580Z,7.53
2022-10-05T05:43:06.775Z,7.28
2022-10-05T05:46:15.934Z,6.57
2022-10-05T05:49:25.271Z,6.90
2022-10-05T05:52:41.703Z,5.07
2022-10-05T05:55:56.499Z,6.22
2022-10-05T05:59:22.757Z,6.22
2022-10-05T06:02:30.508Z,6.72
2022-10-05T06:05:49.914Z,6.70
2022-10-05T06:09:03.238Z,6.85
2022-10-05T06:12:28.343Z,7.95
2022-10-05T06:15:42.396Z,6.60
2022-10-05T06:18:48.998Z,6.75
2022-10-05T06:21:56.590Z,6.30
2022-10-05T06:25:26.751Z,6.50
2022-10-05T06:28:30.604Z,7.10
2022-10-05T06:31:36.034Z,7.55
2022-10-05T06:35:01.698Z,7.97
2022-10-05T06:38:48.434Z,6.53
2022-10-05T06:41:59.952Z,7.05
2022-10-05T06:45:42.585Z,6.45
2022-10-05T06:49:29.951Z,5.63
2022-10-05T06:53:32.239Z,6.22
2022-10-05T06:57:07.940Z,5.03
2022-10-05T07:00:20.381Z,6.60
2022-10-05T07:03:51.708Z,5.57
2022-10-05T07:07:26.899Z,6.18
2022-10-05T07:10:33.952Z,7.13
2022-10-05T07:14:03.600Z,8.63
2022-10-05T07:17:34.850Z,7.05
2022-10-05T07:21:20.591Z,7.53
2022-10-05T07:24:32.644Z,6.68
2022-10-05T07:27:49.474Z,7.10
2022-10-05T07:30:57.135Z,7.07
2022-10-05T07:34:17.841Z,6.93
2022-10-05T07:37:54.585Z,6.80
2022-10-05T07:41:07.488Z,7.93
2022-10-05T07:44:27.233Z,5.95
2022-10-05T07:47:51.810Z,5.30
2022-10-05T07:51:06.781Z,5.80
2022-10-05T07:54:31.101Z,6.28
2022-10-05T07:57:39.715Z,6.72
2022-10-05T08:00:54.831Z,6.10
2022-10-05T08:04:03.522Z,4.87
2022-10-05T08:07:07.579Z,5.00
2022-10-05T08:10:42.244Z,7.70
2022-10-05T08:13:52.023Z,6.15
2022-10-05T08:16:58.121Z,5.40
2022-10-05T08:20:06.182Z,5.30
2022-10-05T08:23:21.598Z,6.13
2022-10-05T08:26:38.919Z,5.20
2022-10-05T08:29:47.774Z,5.75
2022-10-05T08:32:57.497Z,6.35
2022-10-05T08:36:10.950Z,6.70
2022-10-05T08:39:17.414Z,6.40
2022-10-05T08:42:57.541Z,6.65
2022-10-05T08:46:08.448Z,6.75
2022-10-05T08:49:56.959Z,5.40
2022-10-05T08:53:12.418Z,6.30
2022-10-05T08:56:23.117Z,5.32
2022-10-05T08:59:56.591Z,6.20
2022-10-05T09:03:16.909Z,6.40
2022-10-05T09:06:31.653Z,5.47
2022-10-05T09:09:59.487Z,4.30
2022-10-05T09:13:22.758Z,4.97
2022-10-05T09:16:58.796Z,4.95
2022-10-05T09:20:11.240Z,6.05
2022-10-05T09:23:21.730Z,4.80
2022-10-05T09:26:26.889Z,4.83
2022-10-05T09:29:50.569Z,4.75
2022-10-05T09:33:08.477Z,4.88
2022-10-05T09:36:13.698Z,3.65
2022-10-05T09:40:01.486Z,4.60
2022-10-05T09:43:23.188Z,3.27
2022-10-05T09:47:04.579Z,3.70
2022-10-05T09:50:19.183Z,3.08
2022-10-05T09:53:38.580Z,3.75
2022-10-05T09:57:00.328Z,3.58
2022-10-05T10:00:30.583Z,4.27
2022-10-05T10:03:45.292Z,3.70
2022-10-05T10:06:56.449Z,3.25
2022-10-05T10:10:17.386Z,4.03
2022-10-05T10:13:22.498Z,4.05
2022-10-05T10:16:32.818Z,4.00
2022-10-05T10:19:44.035Z,4.20
2022-10-05T10:23:08.128Z,4.40
2022-10-05T10:26:55.994Z,4.00
2022-10-05T10:30:01.095Z,3.95
2022-10-05T10:33:32.961Z,5.20
2022-10-05T10:36:35.136Z,4.10
2022-10-05T10:40:20.355Z,3.50
2022-10-05T10:43:54.091Z,3.25
2022-10-05T10:47:11.230Z,3.40
2022-10-05T10:50:24.824Z,3.40
2022-10-05T10:53:46.478Z,3.70
2022-10-05T10:57:06.673Z,3.90
2022-10-05T11:00:30.148Z,3.63
2022-10-05T11:04:13.656Z,3.60
2022-10-05T11:07:34.282Z,4.13
2022-10-05T11:10:58.928Z,3.40
2022-10-05T11:14:03.800Z,3.58
2022-10-05T11:17:15.784Z,3.40
2022-10-05T11:20:48.437Z,3.90
2022-10-05T11:24:29.517Z,3.70
2022-10-05T11:27:42.627Z,4.40
2022-10-05T11:31:09.523Z,4.40
2022-10-05T11:34:41.054Z,4.97
2022-10-05T11:38:20.778Z,4.80
2022-10-05T11:41:50.739Z,4.83
2022-10-05T11:45:24.222Z,4.88
2022-10-05T11:48:48.125Z,5.78
2022-10-05T11:52:25.328Z,5.95
2022-10-05T11:55:38.098Z,4.82
2022-10-05T11:58:49.698Z,5.30
2022-10-05T12:02:01.136Z,6.40
2022-10-05T12:05:05.468Z,6.10
2022-10-05T12:08:23.044Z,5.43
2022-10-05T12:11:47.139Z,6.00
2022-10-05T12:15:12.718Z,6.40
2022-10-05T12:18:26.901Z,6.78
2022-10-05T12:21:36.497Z,6.45
2022-10-05T12:24:38.679Z,6.13
2022-10-05T12:27:46.347Z,5.80
2022-10-05T12:30:48.842Z,4.87
2022-10-05T12:34:09.546Z,4.45
2022-10-05T12:37:32.047Z,5.13
2022-10-05T12:40:47.846Z,5.00
2022-10-05T12:44:06.969Z,4.60
2022-10-05T12:47:23.790Z,4.80
2022-10-05T12:50:35.054Z,3.90
2022-10-05T12:53:53.636Z,3.30
2022-10-05T12:57:03.144Z,3.28
2022-10-05T13:00:21.763Z,3.25
2022-10-05T13:03:38.187Z,3.40
2022-10-05T13:06:51.929Z,3.40
2022-10-05T13:10:22.891Z,3.42
2022-10-05T13:13:28.685Z,3.28
2022-10-05T13:16:55.316Z,3.30
2022-10-05T13:20:02.497Z,3.13
2022-10-05T13:23:12.418Z,2.75
2022-10-05T13:26:18.291Z,3.10
2022-10-05T13:29:42.728Z,2.53
2022-10-05T13:32:48.237Z,2.72
2022-10-05T13:35:59.016Z,2.10
2022-10-05T13:39:04.281Z,2.28
2022-10-05T13:42:10.043Z,2.63
2022-10-05T13:45:24.128Z,2.72
2022-10-05T13:48:59.645Z,2.28
2022-10-05T13:52:08.769Z,2.53
2022-10-05T13:55:31.985Z,2.70
2022-10-05T13:58:58.356Z,2.20
2022-10-05T14:02:08.047Z,2.35
2022-10-05T14:05:25.375Z,2.75
2022-10-05T14:08:35.890Z,2.40
2022-10-05T14:11:50.915Z,2.40
2022-10-05T14:14:55.254Z,2.30
2022-10-05T14:17:57.481Z,2.97
2022-10-05T14:21:03.116Z,2.45
2022-10-05T14:24:32.201Z,2.10
2022-10-05T14:27:57.575Z,2.58
2022-10-05T14:31:02.231Z,2.42
2022-10-05T14:34:29.330Z,1.90
2022-10-05T14:37:43.302Z,2.40
2022-10-05T14:40:45.558Z,1.87
2022-10-05T14:44:09.721Z,2.15
2022-10-05T14:47:22.907Z,1.90
2022-10-05T14:50:29.478Z,2.05
2022-10-05T14:53:43.784Z,1.50
2022-10-05T14:56:50.418Z,2.00
2022-10-05T15:00:04.414Z,2.15
2022-10-05T15:03:29.969Z,1.90
2022-10-05T15:06:42.202Z,1.88
2022-10-05T15:10:36.907Z,1.95
2022-10-05T15:13:42.537Z,1.60
2022-10-05T15:16:45.386Z,1.60
2022-10-05T15:20:06.397Z,2.13
2022-10-05T15:23:47.574Z,1.73
2022-10-05T15:26:52.646Z,2.10
2022-10-05T15:30:18.208Z,1.87
2022-10-05T15:33:46.386Z,1.90
2022-10-05T15:36:54.508Z,1.70
2022-10-05T15:39:59.305Z,1.90
2022-10-05T15:43:04.709Z,1.90
2022-10-05T15:46:10.585Z,2.17
2022-10-05T15:49:24.142Z,2.33
2022-10-05T15:52:57.028Z,2.10
2022-10-05T15:56:19.624Z,2.72
2022-10-05T15:59:29.187Z,3.75
2022-10-05T16:02:34.510Z,4.00
2022-10-05T16:06:07.999Z,3.92
2022-10-05T16:09:31.656Z,3.00
2022-10-05T16:12:56.368Z,4.20
2022-10-05T16:16:12.663Z,4.38
2022-10-05T16:19:51.584Z,3.83
2022-10-05T16:23:18.677Z,4.50
2022-10-05T16:26:32.726Z,4.88
2022-10-05T16:30:26.456Z,7.13
2022-10-05T16:33:47.074Z,6.20
2022-10-05T16:37:13.679Z,6.37
2022-10-05T16:40:26.534Z,7.00
2022-10-05T16:43:44.977Z,7.50
2022-10-05T16:46:57.478Z,7.65
2022-10-05T16:50:12.067Z,7.43
2022-10-05T16:53:35.783Z,8.13
2022-10-05T16:56:42.977Z,8.57
2022-10-05T17:00:08.833Z,6.13
2022-10-05T17:03:21.862Z,5.10
2022-10-05T17:06:34.597Z,7.05
2022-10-05T17:09:43.053Z,7.63
2022-10-05T17:13:13.665Z,8.23
2022-10-05T17:16:43.053Z,8.48
2022-10-05T17:19:48.389Z,11.13
2022-10-05T17:22:53.299Z,9.85
2022-10-05T17:26:16.204Z,10.57
2022-10-05T17:29:32.182Z,10.57
2022-10-05T17:32:39.562Z,12.82
2022-10-05T17:35:56.899Z,13.63
2022-10-05T17:39:13.218Z,12.25
2022-10-05T17:42:30.655Z,11.00
2022-10-05T17:45:32.830Z,11.07
2022-10-05T17:49:04.086Z,12.45
2022-10-05T17:52:43.751Z,13.93
2022-10-05T17:55:46.381Z,19.65
2022-10-05T17:58:54.559Z,19.83
2022-10-05T18:02:16.002Z,14.30
2022-10-05T18:05:27.983Z,11.70
2022-10-05T18:08:37.790Z,9.48
2022-10-05T18:11:45.168Z,8.70
2022-10-05T18:15:03.222Z,8.47
2022-10-05T18:18:35.806Z,10.65
2022-10-05T18:21:38.854Z,11.18
2022-10-05T18:25:04.051Z,11.07
2022-10-05T18:28:25.354Z,11.43
2022-10-05T18:32:06.056Z,11.37
2022-10-05T18:35:25.221Z,10.40
2022-10-05T18:38:54.525Z,12.10
2022-10-05T18:42:23.096Z,12.13
2022-10-05T18:45:46.763Z,11.75
2022-10-05T18:49:01.250Z,10.63
2022-10-05T18:52:22.039Z,10.73
2022-10-05T18:55:31.552Z,10.15
2022-10-05T18:58:35.279Z,9.75
2022-10-05T19:01:43.760Z,8.20
2022-10-05T19:05:29.300Z,8.80
2022-10-05T19:08:44.889Z,9.07
2022-10-05T19:11:57.508Z,8.25
2022-10-05T19:14:59.742Z,7.38
2022-10-05T19:18:08.177Z,7.47
2022-10-05T19:21:27.021Z,6.27
2022-10-05T19:24:55.036Z,6.63
2022-10-05T19:28:14.195Z,6.53
2022-10-05T19:31:30.725Z,7.10
2022-10-05T19:34:55.076Z,6.60
2022-10-05T19:38:26.716Z,6.47
2022-10-05T19:41:47.617Z,7.00
2022-10-05T19:44:49.938Z,7.35
2022-10-05T19:48:16.539Z,7.63
2022-10-05T19:51:28.796Z,7.20
2022-10-05T19:54:31.722Z,7.97
2022-10-05T19:57:34.640Z,7.68
2022-10-05T20:00:37.933Z,6.88
2022-10-05T20:03:41.522Z,7.00
2022-10-05T20:06:43.826Z,7.40
2022-10-05T20:09:56.737Z,7.80
2022-10-05T20:13:00.771Z,6.97
2022-10-05T20:16:35.447Z,6.57
2022-10-05T20:19:57.533Z,8.30
2022-10-05T20:23:20.768Z,7.75
2022-10-05T20:27:02.096Z,7.57
2022-10-05T20:30:05.870Z,6.72
2022-10-05T20:33:14.608Z,7.30
2022-10-05T20:36:16.970Z,7.10
2022-10-05T20:39:21.356Z,7.28
2022-10-05T20:42:23.950Z,7.63
2022-10-05T20:45:26.412Z,7.63
2022-10-05T20:48:29.047Z,7.75
2022-10-05T20:51:31.565Z,6.72
2022-10-05T20:54:33.999Z,8.35
2022-10-05T20:57:41.594Z,7.43
2022-10-05T21:01:02.243Z,8.07
2022-10-05T21:04:06.950Z,7.50
2022-10-05T21:07:09.305Z,8.63
2022-10-05T21:10:14.357Z,7.43
2022-10-05T21:13:17.737Z,6.97
2022-10-05T21:16:21.101Z,6.18
2022-10-05T21:19:23.350Z,7.00
2022-10-05T21:22:26.198Z,7.20
2022-10-05T21:25:28.622Z,6.65
2022-10-05T21:28:32.055Z,6.87
2022-10-05T21:31:34.664Z,7.35
2022-10-05T21:34:38.411Z,7.13
2022-10-05T21:37:40.783Z,6.75
2022-10-05T21:40:45.246Z,7.53
2022-10-05T21:43:47.533Z,6.77
2022-10-05T21:46:50.003Z,6.55
2022-10-05T21:49:52.297Z,6.25
2022-10-05T21:52:54.851Z,7.25
2022-10-05T21:56:00.841Z,7.05
2022-10-05T21:59:07.713Z,7.80
2022-10-05T22:02:10.048Z,6.60
2022-10-05T22:05:12.377Z,7.65
2022-10-05T22:08:29.300Z,6.72
2022-10-05T22:11:32.498Z,7.63
2022-10-05T22:14:34.787Z,7.37
2022-10-05T22:17:37.119Z,6.93
2022-10-05T22:20:39.361Z,7.40
2022-10-05T22:23:43.199Z,8.07
2022-10-05T22:26:47.283Z,7.10
2022-10-05T22:29:49.936Z,6.90
2022-10-05T22:32:52.159Z,6.88
2022-10-05T22:35:54.575Z,7.45
2022-10-05T22:38:56.824Z,6.68
2022-10-05T22:41:59.391Z,6.85
2022-10-05T22:45:01.718Z,6.37
2022-10-05T22:48:04.174Z,6.45
2022-10-05T22:51:07.194Z,6.03
2022-10-05T22:58:45.224Z,6.70
2022-10-05T23:01:47.532Z,6.47
2022-10-05T23:04:49.940Z,6.68
2022-10-05T23:07:52.853Z,7.10
2022-10-05T23:10:55.104Z,6.95
2022-10-05T23:13:57.542Z,7.35
2022-10-05T23:16:59.909Z,6.40
2022-10-05T23:20:03.310Z,6.97
2022-10-05T23:23:05.515Z,6.93
2022-10-05T23:26:09.942Z,7.00
2022-10-05T23:29:12.235Z,7.20
2022-10-05T23:32:14.497Z,6.53
2022-10-05T23:35:16.843Z,6.43
2022-10-05T23:38:19.112Z,7.22
2022-10-05T23:41:21.396Z,6.88
2022-10-05T23:44:23.727Z,6.85
2022-10-05T23:47:25.978Z,6.87
2022-10-05T23:50:28.311Z,6.53
2022-10-05T23:53:30.584Z,7.75
2022-10-05T23:56:33.293Z,6.78
2022-10-05T23:59:35.566Z,6.78
